Metar Aviation Weather Data KPBI

81°F Temp
64°F Dewpoint
% Humidity
Temperature
3 MPH
5 KM/H
3 KTS
Calm
Due North

Wind Speed
Mostly Scattered
Clouds
Pressure 1013.8 (hPa) - 29.94 (in)
Visibility 10.0 (mi) - 16.1 (km)

Current Conditions
KPBI
Metar :KPBI 262153Z VRB03KT 10SM SCT043 SCT050 BKN065 27/18 A2994 RMK AO2 SLP138 T02670183 $
Tue 26th March 17:53 pm

  Metar Aviation API Data Provided by https://www.checkwx.com/ PHP scripts by weather34.com ©2019